Time;durP1;ratioP1;P1;durP2;ratioP2;P2;SDS_P1;SDS_P2;PMS_P1;PMS_P2;Temp;Humidity;BMP_temperature;BMP_pressure;BME280_temperature;BME280_humidity;BME280_pressure;Samples;Min_cycle;Max_cycle;Signal;HPM_P1;HPM_P2
2023/09/25 00:01:04;;;;;;;4.97;2.53;;;9.30;99.90;;;;;;5106831;28;20032;-69
2023/09/25 00:03:30;;;;;;;6.05;2.78;;;9.20;99.90;;;;;;5101547;28;20036;-68
2023/09/25 00:05:55;;;;;;;3.97;2.15;;;9.20;99.90;;;;;;5099433;28;20023;-68
2023/09/25 00:08:21;;;;;;;4.38;2.80;;;9.20;99.90;;;;;;5103593;28;20036;-68
2023/09/25 00:10:46;;;;;;;4.82;2.60;;;9.20;99.90;;;;;;5108667;28;20034;-68
2023/09/25 00:13:12;;;;;;;6.25;3.08;;;9.20;99.90;;;;;;5102744;28;20024;-67
2023/09/25 00:15:45;;;;;;;3.03;2.10;;;9.10;99.90;;;;;;5092031;28;20017;-68
2023/09/25 00:18:13;;;;;;;7.38;2.60;;;9.00;99.90;;;;;;5097832;28;20035;-69
2023/09/25 00:20:39;;;;;;;4.53;2.47;;;8.90;99.90;;;;;;5108463;28;21289;-68
2023/09/25 00:23:05;;;;;;;4.32;2.63;;;8.80;99.90;;;;;;5107945;28;20031;-68
2023/09/25 00:25:31;;;;;;;5.45;2.80;;;8.80;99.90;;;;;;5103814;28;20030;-68
2023/09/25 00:27:57;;;;;;;5.63;2.53;;;8.80;99.90;;;;;;5110232;28;20019;-69
2023/09/25 00:30:23;;;;;;;7.13;3.40;;;8.70;99.90;;;;;;5094306;28;20020;-68
2023/09/25 00:32:50;;;;;;;6.55;3.10;;;8.70;99.90;;;;;;5097165;28;20085;-68
2023/09/25 00:35:16;;;;;;;5.95;2.97;;;;;;;;;;5105632;28;20032;-68
2023/09/25 00:37:42;;;;;;;6.45;3.50;;;8.50;99.90;;;;;;5110998;28;20020;-69
2023/09/25 00:40:14;;;;;;;5.57;2.83;;;8.40;99.90;;;;;;5100439;28;20031;-69
2023/09/25 00:42:41;;;;;;;5.38;3.33;;;8.40;99.90;;;;;;5101817;28;20385;-69
2023/09/25 00:45:08;;;;;;;6.35;3.47;;;8.30;99.90;;;;;;5102248;28;20481;-68
2023/09/25 00:47:34;;;;;;;5.97;3.88;;;8.30;99.90;;;;;;5093380;28;20020;-69
2023/09/25 00:50:00;;;;;;;6.15;3.22;;;8.30;99.90;;;;;;5101653;28;20070;-69
2023/09/25 00:52:26;;;;;;;4.88;2.78;;;8.20;99.90;;;;;;5104242;28;20146;-68
2023/09/25 00:54:52;;;;;;;7.00;2.92;;;8.20;99.90;;;;;;5104755;28;20094;-69
2023/09/25 00:57:18;;;;;;;4.22;2.90;;;8.20;99.90;;;;;;5094746;28;20032;-68
2023/09/25 00:59:44;;;;;;;4.78;3.15;;;8.10;99.90;;;;;;5103872;28;20047;-69
2023/09/25 01:02:10;;;;;;;5.18;2.65;;;8.10;99.90;;;;;;5108435;28;20472;-69
2023/09/25 01:04:36;;;;;;;3.97;2.83;;;8.00;99.90;;;;;;5108094;28;20039;-68
2023/09/25 01:07:03;;;;;;;4.70;3.03;;;;;;;;;;5095080;28;20039;-69
2023/09/25 01:09:29;;;;;;;6.43;3.00;;;8.00;99.90;;;;;;5105066;28;20020;-68
2023/09/25 01:11:54;;;;;;;4.40;2.80;;;8.00;99.90;;;;;;5111151;28;20058;-68
2023/09/25 01:14:20;;;;;;;5.18;2.72;;;8.00;99.90;;;;;;5098427;28;20063;-68
2023/09/25 01:16:45;;;;;;;6.07;2.60;;;8.00;99.90;;;;;;5100365;28;20028;-68
2023/09/25 01:19:13;;;;;;;3.97;2.72;;;8.00;99.90;;;;;;5107355;28;20026;-68
2023/09/25 01:21:48;;;;;;;5.57;3.10;;;7.90;99.90;;;;;;5100471;28;20097;-69
2023/09/25 01:24:14;;;;;;;5.07;3.15;;;7.90;99.90;;;;;;5092253;28;20067;-69
2023/09/25 01:26:39;;;;;;;6.65;3.10;;;7.90;99.90;;;;;;5102645;28;20481;-68
2023/09/25 01:29:05;;;;;;;6.20;3.47;;;7.90;99.90;;;;;;5104393;28;20024;-68
2023/09/25 01:31:31;;;;;;;7.28;2.85;;;7.90;99.90;;;;;;5094540;28;20019;-68
2023/09/25 01:33:56;;;;;;;6.30;3.20;;;7.90;99.90;;;;;;5094640;28;20035;-68
2023/09/25 01:36:22;;;;;;;5.45;3.30;;;7.90;99.90;;;;;;5108907;28;20038;-68
2023/09/25 01:38:47;;;;;;;5.50;2.78;;;8.00;99.90;;;;;;5111148;28;20084;-68
2023/09/25 01:41:15;;;;;;;3.53;2.75;;;8.00;99.90;;;;;;5098405;28;20460;-68
2023/09/25 01:43:43;;;;;;;8.40;3.25;;;8.00;99.90;;;;;;5109996;28;20456;-68
2023/09/25 01:46:09;;;;;;;5.10;3.03;;;8.10;99.90;;;;;;5097940;28;20051;-69
2023/09/25 01:48:35;;;;;;;4.95;2.63;;;8.10;99.90;;;;;;5092057;28;20031;-68
2023/09/25 01:51:09;;;;;;;5.57;3.28;;;8.10;99.90;;;;;;5094710;28;20024;-69
2023/09/25 01:53:35;;;;;;;4.32;2.47;;;8.10;99.90;;;;;;5089191;28;20039;-69
2023/09/25 01:56:12;;;;;;;7.00;2.80;;;8.00;99.90;;;;;;5088269;28;20024;-67
2023/09/25 01:58:38;;;;;;;5.53;2.85;;;7.90;99.90;;;;;;5088326;28;20020;-68
2023/09/25 02:01:03;;;;;;;4.72;2.40;;;7.90;99.90;;;;;;5093202;28;21367;-69
2023/09/25 02:03:30;;;;;;;3.33;2.47;;;7.80;99.90;;;;;;5090927;28;20040;-68
2023/09/25 02:05:56;;;;;;;4.32;2.42;;;7.80;99.90;;;;;;5090192;28;20376;-68
2023/09/25 02:08:22;;;;;;;6.22;2.88;;;7.70;99.90;;;;;;5085922;28;20035;-68
2023/09/25 02:10:48;;;;;;;6.50;2.60;;;7.60;99.90;;;;;;5090674;28;20032;-69
2023/09/25 02:13:13;;;;;;;3.10;2.38;;;7.60;99.90;;;;;;5088959;28;20482;-69
2023/09/25 02:15:39;;;;;;;4.68;2.40;;;7.50;99.90;;;;;;5093354;28;20027;-69
2023/09/25 02:18:05;;;;;;;4.57;2.80;;;7.40;99.90;;;;;;5109044;28;20038;-69
2023/09/25 02:20:30;;;;;;;4.07;2.42;;;7.40;99.90;;;;;;5109014;28;20653;-69
2023/09/25 02:22:56;;;;;;;5.40;2.90;;;7.40;99.90;;;;;;5098439;28;20031;-69
2023/09/25 02:25:22;;;;;;;5.15;3.10;;;7.40;99.90;;;;;;5101843;28;20260;-67
2023/09/25 02:27:47;;;;;;;3.78;2.28;;;7.40;99.90;;;;;;5110890;28;20031;-67
2023/09/25 02:30:13;;;;;;;4.65;2.40;;;7.30;99.90;;;;;;5112455;28;20027;-68
2023/09/25 02:32:41;;;;;;;5.00;2.75;;;7.30;99.90;;;;;;5099562;28;20036;-67
2023/09/25 02:35:07;;;;;;;4.80;2.47;;;7.30;99.90;;;;;;5104518;28;20089;-67
2023/09/25 02:37:33;;;;;;;3.97;2.63;;;7.30;99.90;;;;;;5112256;28;20024;-67
2023/09/25 02:39:59;;;;;;;2.45;2.08;;;7.30;99.90;;;;;;5101686;28;20028;-67
2023/09/25 02:42:24;;;;;;;5.43;2.60;;;7.30;99.90;;;;;;5103744;28;20024;-67
2023/09/25 02:44:51;;;;;;;3.92;2.55;;;7.20;99.90;;;;;;5100675;28;20035;-67
2023/09/25 02:47:17;;;;;;;6.20;2.70;;;7.30;99.90;;;;;;5094744;28;20052;-67
2023/09/25 02:49:44;;;;;;;4.10;2.33;;;7.20;99.90;;;;;;5099916;28;20126;-68
2023/09/25 02:52:09;;;;;;;3.42;2.33;;;7.20;99.90;;;;;;5107714;28;20115;-68
2023/09/25 02:54:35;;;;;;;4.72;2.60;;;7.20;99.90;;;;;;5108515;28;20019;-67
2023/09/25 02:57:01;;;;;;;6.78;2.60;;;7.20;99.90;;;;;;5098097;28;20078;-67
2023/09/25 02:59:27;;;;;;;4.20;2.63;;;7.20;99.90;;;;;;5103776;28;20031;-68
2023/09/25 03:01:52;;;;;;;3.40;2.35;;;7.20;99.90;;;;;;5110664;28;20144;-68
2023/09/25 03:04:18;;;;;;;4.25;2.72;;;7.30;99.90;;;;;;5099260;28;20027;-68
2023/09/25 03:06:44;;;;;;;3.70;2.60;;;;;;;;;;5097733;28;20380;-68
2023/09/25 03:09:10;;;;;;;4.28;2.33;;;;;;;;;;5105228;28;20039;-67
2023/09/25 03:11:36;;;;;;;4.50;2.70;;;;;;;;;;5112689;28;20099;-67
2023/09/25 03:14:03;;;;;;;2.92;2.22;;;;;;;;;;5102227;28;20106;-68
2023/09/25 03:16:30;;;;;;;2.92;2.40;;;;;;;;;;5103444;28;20050;-68
2023/09/25 03:18:56;;;;;;;5.35;2.90;;;;;;;;;;5108210;28;20084;-68
2023/09/25 03:21:22;;;;;;;6.05;2.58;;;;;;;;;;5103713;28;20035;-67
2023/09/25 03:23:49;;;;;;;4.25;2.60;;;;;;;;;;5099320;28;20023;-68
2023/09/25 03:26:16;;;;;;;4.93;2.60;;;;;;;;;;5107207;28;20088;-68
2023/09/25 03:28:43;;;;;;;4.90;2.70;;;;;;;;;;5107296;28;20027;-68
2023/09/25 03:31:09;;;;;;;4.07;2.92;;;;;;;;;;5094008;28;20021;-67
2023/09/25 03:33:34;;;;;;;4.00;2.60;;;;;;;;;;5103243;28;20042;-67
2023/09/25 03:36:01;;;;;;;4.78;2.70;;;;;;;;;;5109863;28;20020;-67
2023/09/25 03:38:27;;;;;;;6.22;3.03;;;;;;;;;;5109534;28;20353;-67
2023/09/25 03:40:53;;;;;;;3.53;2.33;;;;;;;;;;5094774;28;20020;-67
2023/09/25 03:43:19;;;;;;;5.70;2.40;;;;;;;;;;5104312;28;20020;-67
2023/09/25 03:45:45;;;;;;;5.60;2.83;;;;;;;;;;5091790;28;20048;-67
2023/09/25 03:48:11;;;;;;;4.45;2.70;;;;;;;;;;5098505;28;20031;-67
2023/09/25 03:50:37;;;;;;;3.67;2.10;;;;;;;;;;5101019;28;20033;-67
2023/09/25 03:53:03;;;;;;;4.85;2.45;;;;;;;;;;5103854;28;20020;-67
2023/09/25 03:55:29;;;;;;;3.22;2.05;;;;;;;;;;5092423;28;20252;-67
2023/09/25 03:57:56;;;;;;;3.97;2.33;;;;;;;;;;5099998;28;20520;-67
2023/09/25 04:00:22;;;;;;;6.97;2.90;;;;;;;;;;5104765;28;20428;-67
2023/09/25 04:02:48;;;;;;;3.50;2.40;;;;;;;;;;5106268;28;20024;-69
2023/09/25 04:05:14;;;;;;;7.47;2.40;;;;;;;;;;5094623;28;20028;-68
2023/09/25 04:07:40;;;;;;;2.97;2.30;;;;;;;;;;5102353;28;20026;-69
2023/09/25 04:10:07;;;;;;;3.50;2.40;;;;;;;;;;5108107;28;20383;-68
2023/09/25 04:12:37;;;;;;;4.28;2.60;;;;;;;;;;5108604;28;20125;-69
2023/09/25 04:15:13;;;;;;;6.22;2.80;;;;;;;;;;5096141;28;20028;-68
2023/09/25 04:17:40;;;;;;;5.13;2.53;;;;;;;;;;5106556;28;20028;-69
2023/09/25 04:20:16;;;;;;;4.35;2.25;;;;;;;;;;5105134;28;20384;-69
2023/09/25 04:22:42;;;;;;;3.70;2.50;;;;;;;;;;5097116;28;20024;-68
2023/09/25 04:25:15;;;;;;;4.20;2.42;;;;;;;;;;5100112;28;20043;-68
2023/09/25 04:27:41;;;;;;;3.95;2.38;;;;;;;;;;5109907;28;20024;-68
2023/09/25 04:30:08;;;;;;;4.85;2.50;;;;;;;;;;5097584;28;20024;-69
2023/09/25 04:32:34;;;;;;;5.45;2.53;;;;;;;;;;5097271;28;20034;-68
2023/09/25 04:35:00;;;;;;;4.60;2.38;;;;;;;;;;5103930;28;20222;-69
2023/09/25 04:37:26;;;;;;;5.57;2.75;;;;;;;;;;5109982;28;20515;-68
2023/09/25 04:39:52;;;;;;;4.60;2.83;;;;;;;;;;5101258;28;20032;-68
2023/09/25 04:42:19;;;;;;;6.63;2.83;;;;;;;;;;5103709;28;20074;-68
2023/09/25 04:44:45;;;;;;;3.90;2.60;;;;;;;;;;5084893;28;20024;-69
2023/09/25 04:47:11;;;;;;;3.75;2.15;;;;;;;;;;5092879;28;20101;-69
2023/09/25 04:49:37;;;;;;;3.50;2.33;;;;;;;;;;5098702;28;20061;-68
2023/09/25 04:52:03;;;;;;;3.92;2.40;;;;;;;;;;5098470;28;20024;-69
2023/09/25 04:54:31;;;;;;;5.47;2.45;;;;;;;;;;5085385;28;20657;-68
2023/09/25 04:56:57;;;;;;;6.10;2.88;;;;;;;;;;5087324;28;20077;-68
2023/09/25 04:59:23;;;;;;;4.38;2.55;;;;;;;;;;5092530;28;20384;-68
2023/09/25 05:01:49;;;;;;;5.35;2.20;;;;;;;;;;5086394;28;20028;-69
2023/09/25 05:04:16;;;;;;;2.45;1.92;;;;;;;;;;5082498;28;20036;-68
2023/09/25 05:06:42;;;;;;;4.15;2.65;;;;;;;;;;5088431;28;20096;-68
2023/09/25 05:09:11;;;;;;;3.85;2.30;;;;;;;;;;5103427;28;20103;-69
2023/09/25 05:11:37;;;;;;;6.18;2.67;;;;;;;;;;5111041;28;20041;-68
2023/09/25 05:14:05;;;;;;;4.28;2.90;;;;;;;;;;5099602;28;20031;-68
2023/09/25 05:16:31;;;;;;;4.90;2.97;;;;;;;;;;5093259;28;20008;-68
2023/09/25 05:18:58;;;;;;;4.28;2.30;;;;;;;;;;5090538;28;20375;-68
2023/09/25 05:21:24;;;;;;;3.90;2.35;;;;;;;;;;5083966;28;20023;-68
2023/09/25 05:23:50;;;;;;;3.88;2.60;;;;;;;;;;5089873;28;20036;-73
2023/09/25 05:26:16;;;;;;;6.72;2.88;;;;;;;;;;5087993;28;20464;-67
2023/09/25 05:28:45;;;;;;;5.72;2.80;;;;;;;;;;5085902;28;20031;-68
2023/09/25 05:31:12;;;;;;;5.95;3.08;;;;;;;;;;5086230;28;20074;-71
2023/09/25 05:33:39;;;;;;;8.00;3.22;;;;;;;;;;5100906;28;20024;-68
2023/09/25 05:36:06;;;;;;;5.70;3.17;;;7.00;99.90;;;;;;5093829;28;20066;-67
2023/09/25 05:38:31;;;;;;;4.95;2.70;;;7.00;99.90;;;;;;5100086;28;20025;-68
2023/09/25 05:40:57;;;;;;;5.43;3.22;;;7.10;99.90;;;;;;5096110;28;20028;-67
2023/09/25 05:43:23;;;;;;;5.43;3.33;;;7.20;99.90;;;;;;5085631;28;20107;-67
2023/09/25 05:45:48;;;;;;;4.85;2.85;;;7.20;99.90;;;;;;5091015;28;20048;-67
2023/09/25 05:48:14;;;;;;;7.85;3.33;;;7.30;99.90;;;;;;5096588;28;20034;-72
2023/09/25 05:50:39;;;;;;;6.15;3.05;;;7.30;99.90;;;;;;5099477;28;20020;-69
2023/09/25 05:53:05;;;;;;;4.63;2.63;;;7.30;99.90;;;;;;5103282;28;20028;-70
2023/09/25 05:55:31;;;;;;;5.95;2.67;;;7.30;99.90;;;;;;5090247;28;20108;-69
2023/09/25 05:57:56;;;;;;;6.07;3.20;;;7.40;99.90;;;;;;5100539;28;20058;-67
2023/09/25 06:00:22;;;;;;;5.20;3.00;;;7.50;99.90;;;;;;5103592;28;20115;-68
2023/09/25 06:02:48;;;;;;;3.90;2.63;;;7.60;99.90;;;;;;5104864;28;20448;-67
2023/09/25 06:05:15;;;;;;;5.70;2.92;;;7.70;99.90;;;;;;5092932;28;20069;-67
2023/09/25 06:07:42;;;;;;;5.15;3.25;;;7.90;99.90;;;;;;5100029;28;20027;-71
2023/09/25 06:10:08;;;;;;;5.97;3.10;;;7.80;99.90;;;;;;5106732;28;20506;-66
2023/09/25 06:12:35;;;;;;;5.68;3.05;;;7.90;99.90;;;;;;5104393;28;20032;-68
2023/09/25 06:15:01;;;;;;;6.57;3.22;;;7.90;99.90;;;;;;5095974;28;20031;-67
2023/09/25 06:17:26;;;;;;;6.38;3.10;;;8.00;99.90;;;;;;5097229;28;20027;-69
2023/09/25 06:19:53;;;;;;;7.60;3.58;;;8.10;99.90;;;;;;5112830;28;20032;-67
2023/09/25 06:22:21;;;;;;;5.60;3.28;;;8.10;99.90;;;;;;5101755;28;20520;-67
2023/09/25 06:24:47;;;;;;;6.18;3.03;;;8.30;99.90;;;;;;5093482;28;20035;-67
2023/09/25 06:27:12;;;;;;;4.70;2.95;;;8.40;99.90;;;;;;5109761;28;20107;-66
2023/09/25 06:29:38;;;;;;;4.63;2.45;;;8.50;99.90;;;;;;5102441;28;20169;-66
2023/09/25 06:32:04;;;;;;;5.53;3.00;;;8.60;99.90;;;;;;5099682;28;20028;-66
2023/09/25 06:34:30;;;;;;;7.38;2.90;;;8.60;99.90;;;;;;5103681;28;20034;-68
2023/09/25 06:36:55;;;;;;;4.13;2.83;;;8.80;99.90;;;;;;5109027;28;20104;-67
2023/09/25 06:39:23;;;;;;;6.78;2.97;;;8.80;99.90;;;;;;5095799;28;20062;-68
2023/09/25 06:41:48;;;;;;;4.82;3.45;;;8.90;99.90;;;;;;5100418;28;20039;-67
2023/09/25 06:44:14;;;;;;;6.20;3.30;;;9.00;99.90;;;;;;5104795;28;20032;-67
2023/09/25 06:46:40;;;;;;;8.07;4.07;;;9.10;99.90;;;;;;5094306;28;20127;-67
2023/09/25 06:49:06;;;;;;;5.53;3.22;;;9.20;99.90;;;;;;5098461;28;20016;-68
2023/09/25 06:51:32;;;;;;;6.88;3.15;;;9.30;99.90;;;;;;5106091;28;20038;-67
2023/09/25 06:53:57;;;;;;;8.00;3.45;;;9.40;99.90;;;;;;5100060;28;20103;-68
2023/09/25 06:56:23;;;;;;;7.93;3.88;;;9.40;99.90;;;;;;5097730;28;20114;-67
2023/09/25 06:58:51;;;;;;;5.95;3.30;;;9.60;99.90;;;;;;5100688;28;20028;-68
2023/09/25 07:01:17;;;;;;;8.50;4.07;;;9.70;99.90;;;;;;5108051;28;20023;-67
2023/09/25 07:03:44;;;;;;;6.97;4.00;;;9.80;99.90;;;;;;5101177;28;20040;-67
2023/09/25 07:06:09;;;;;;;8.02;4.00;;;9.90;99.90;;;;;;5101182;28;20028;-67
2023/09/25 07:08:35;;;;;;;5.05;3.80;;;10.10;99.90;;;;;;5103293;28;20096;-67
2023/09/25 07:11:03;;;;;;;5.35;3.72;;;;;;;;;;5109479;28;20027;-68
2023/09/25 07:13:32;;;;;;;8.13;4.60;;;;;;;;;;5102767;28;20043;-67
2023/09/25 07:16:11;;;;;;;8.18;4.75;;;;;;;;;;5100209;28;20028;-67
2023/09/25 07:18:38;;;;;;;10.27;4.30;;;;;;;;;;5103524;28;20023;-68
2023/09/25 07:21:05;;;;;;;9.65;4.70;;;;;;;;;;5094318;28;20164;-67
2023/09/25 07:23:31;;;;;;;7.25;4.80;;;;;;;;;;5096936;28;20608;-68
2023/09/25 07:26:04;;;;;;;12.70;4.90;;;;;;;;;;5107445;28;20084;-68
2023/09/25 07:28:31;;;;;;;9.88;4.40;;;;;;;;;;5106589;28;20020;-68
2023/09/25 07:31:00;;;;;;;10.07;4.68;;;;;;;;;;5086458;28;20055;-67
2023/09/25 07:33:27;;;;;;;12.70;4.93;;;;;;;;;;5096697;28;20028;-67
2023/09/25 07:35:53;;;;;;;15.25;4.75;;;;;;;;;;5094490;28;20025;-67
2023/09/25 07:38:19;;;;;;;16.55;5.30;;;;;;;;;;5092313;28;20089;-69
2023/09/25 07:40:47;;;;;;;10.45;4.65;;;;;;;;;;5098379;28;20012;-69
2023/09/25 07:43:19;;;;;;;10.00;4.75;;;;;;;;;;5103863;28;20028;-68
2023/09/25 07:45:45;;;;;;;9.27;4.55;;;;;;;;;;5100697;28;20500;-66
2023/09/25 07:48:13;;;;;;;9.18;4.78;;;12.70;99.90;;;;;;5094983;28;20020;-69
2023/09/25 07:50:40;;;;;;;7.22;4.40;;;12.60;99.90;;;;;;5090630;28;20107;-66
2023/09/25 07:53:05;;;;;;;12.95;5.28;;;12.60;99.90;;;;;;5104439;28;20024;-66
2023/09/25 07:55:31;;;;;;;8.02;5.05;;;12.70;99.90;;;;;;5090446;28;20024;-68
2023/09/25 07:57:56;;;;;;;7.40;4.93;;;12.80;99.90;;;;;;5102139;28;20038;-67
2023/09/25 08:00:25;;;;;;;8.40;4.70;;;12.90;99.90;;;;;;5105855;28;20376;-68
2023/09/25 08:02:52;;;;;;;13.15;4.82;;;12.90;99.90;;;;;;5107005;28;20032;-68
2023/09/25 08:05:18;;;;;;;8.10;4.53;;;13.10;99.90;;;;;;5094971;28;20574;-68
2023/09/25 08:07:48;;;;;;;10.10;4.90;;;13.30;99.90;;;;;;5105044;28;20079;-68
2023/09/25 08:10:15;;;;;;;;;;;13.50;99.90;;;;;;5108196;28;20027;-68
2023/09/25 08:12:43;;;;;;;7.47;4.28;;;;;;;;;;5101910;28;19999;-67
2023/09/25 08:15:10;;;;;;;6.90;4.28;;;;;;;;;;5097704;28;20103;-68
2023/09/25 08:17:36;;;;;;;9.27;4.53;;;;;;;;;;5102359;28;20023;-68
2023/09/25 08:20:13;;;;;;;8.65;4.20;;;;;;;;;;5110739;28;20097;-67
2023/09/25 08:22:39;;;;;;;10.68;4.50;;;;;;;;;;5097952;28;20662;-67
2023/09/25 08:25:05;;;;;;;9.60;4.03;;;;;;;;;;5101230;28;20032;-68
2023/09/25 08:27:31;;;;;;;6.70;4.13;;;14.40;99.90;;;;;;5109608;28;20035;-68
2023/09/25 08:29:57;;;;;;;9.70;4.03;;;14.50;99.90;;;;;;5094554;28;20028;-68
2023/09/25 08:32:22;;;;;;;7.95;3.60;;;14.60;99.90;;;;;;5095557;28;20061;-68
2023/09/25 08:34:48;;;;;;;7.93;4.03;;;14.70;99.90;;;;;;5099304;28;20436;-68
2023/09/25 08:37:13;;;;;;;8.82;3.88;;;14.80;99.90;;;;;;5103343;28;20376;-68
2023/09/25 08:39:39;;;;;;;7.80;4.07;;;14.80;99.90;;;;;;5108475;28;20084;-69
2023/09/25 08:42:05;;;;;;;8.80;3.90;;;15.00;99.90;;;;;;5096901;28;20035;-68
2023/09/25 08:44:31;;;;;;;9.60;3.63;;;15.10;99.90;;;;;;5099467;28;20020;-68
2023/09/25 08:46:57;;;;;;;6.18;3.80;;;15.30;99.90;;;;;;5086039;28;20040;-68
2023/09/25 08:49:23;;;;;;;7.28;3.50;;;15.40;99.90;;;;;;5093658;28;20103;-68
2023/09/25 08:51:50;;;;;;;7.10;3.42;;;15.40;99.90;;;;;;5104943;28;20476;-67
2023/09/25 08:54:17;;;;;;;7.32;3.38;;;15.50;99.90;;;;;;5099823;28;20032;-67
2023/09/25 08:56:45;;;;;;;6.03;3.10;;;15.70;99.90;;;;;;5095407;28;20024;-68
2023/09/25 08:59:11;;;;;;;5.25;2.95;;;15.70;99.90;;;;;;5090210;28;20021;-68
2023/09/25 09:01:37;;;;;;;8.70;3.30;;;15.90;99.90;;;;;;5085248;28;20023;-67
2023/09/25 09:04:03;;;;;;;4.95;2.90;;;15.90;99.90;;;;;;5105456;28;20034;-68
2023/09/25 09:06:29;;;;;;;5.38;3.17;;;16.10;99.90;;;;;;5104056;28;20020;-68
2023/09/25 09:08:57;;;;;;;7.07;3.00;;;16.30;99.90;;;;;;5096624;28;20024;-67
2023/09/25 09:11:23;;;;;;;4.85;3.08;;;16.50;99.90;;;;;;5084527;28;20357;-67
2023/09/25 09:13:49;;;;;;;5.50;3.28;;;16.60;99.90;;;;;;5109037;28;20036;-67
2023/09/25 09:16:17;;;;;;;4.47;2.90;;;16.70;99.90;;;;;;5094147;28;20116;-69
2023/09/25 09:18:43;;;;;;;8.70;4.00;;;16.80;99.90;;;;;;5097941;28;20032;-68
2023/09/25 09:21:27;;;;;;;7.90;3.15;;;16.80;99.90;;;;;;5095775;28;20027;-68
2023/09/25 09:23:57;;;;;;;6.22;2.85;;;16.90;99.90;;;;;;5097868;28;20089;-67
2023/09/25 09:26:23;;;;;;;6.20;2.92;;;17.00;99.90;;;;;;5096920;28;20043;-67
2023/09/25 09:28:53;;;;;;;5.07;2.42;;;17.10;99.90;;;;;;5093596;28;20404;-66
2023/09/25 09:31:19;;;;;;;5.90;3.00;;;17.20;99.90;;;;;;5106384;28;20364;-67
2023/09/25 09:33:45;;;;;;;3.88;2.50;;;17.30;99.90;;;;;;5082598;28;20016;-66
2023/09/25 09:36:14;;;;;;;5.07;2.70;;;17.40;99.90;;;;;;5100897;28;20024;-66
2023/09/25 09:38:42;;;;;;;5.05;2.80;;;17.40;99.90;;;;;;5105740;28;20031;-66
2023/09/25 09:41:13;;;;;;;5.00;2.75;;;17.50;99.90;;;;;;5093021;28;20400;-66
2023/09/25 09:43:41;;;;;;;4.15;2.60;;;17.70;99.90;;;;;;5091343;28;20456;-66
2023/09/25 09:46:09;;;;;;;6.60;2.72;;;17.70;99.90;;;;;;5095825;28;20047;-67
2023/09/25 09:48:38;;;;;;;4.47;2.42;;;17.70;99.90;;;;;;5092796;28;20027;-67
2023/09/25 09:51:03;;;;;;;6.50;2.80;;;17.80;99.90;;;;;;5101119;28;20020;-67
2023/09/25 09:53:34;;;;;;;7.28;2.45;;;18.00;99.90;;;;;;5097140;28;20017;-67
2023/09/25 09:56:01;;;;;;;5.32;2.63;;;18.00;99.90;;;;;;5098219;28;20031;-67
2023/09/25 09:58:28;;;;;;;4.38;2.20;;;18.10;99.90;;;;;;5104714;28;20084;-67
2023/09/25 10:01:00;;;;;;;7.18;2.53;;;18.10;99.90;;;;;;5099711;28;20058;-67
2023/09/25 10:03:28;;;;;;;6.13;2.60;;;18.40;99.90;;;;;;5104023;28;20379;-66
2023/09/25 10:05:55;;;;;;;4.47;2.47;;;18.60;99.90;;;;;;5101420;28;20038;-66
2023/09/25 10:08:21;;;;;;;6.57;3.17;;;18.70;99.90;;;;;;5107214;28;20337;-68
2023/09/25 10:10:51;;;;;;;4.68;2.67;;;18.60;99.90;;;;;;5110915;28;20031;-67
2023/09/25 10:13:25;;;;;;;6.72;3.08;;;18.80;99.90;;;;;;5102581;28;20032;-67
2023/09/25 10:16:00;;;;;;;7.32;2.90;;;18.80;99.90;;;;;;5105710;28;20023;-76
2023/09/25 10:18:30;;;;;;;4.32;2.70;;;18.70;99.80;;;;;;5105891;28;20476;-71
2023/09/25 10:21:10;;;;;;;4.55;2.78;;;18.80;99.90;;;;;;5097493;28;20073;-74
2023/09/25 10:23:39;;;;;;;5.47;2.60;;;18.90;99.90;;;;;;5100997;28;20035;-73
2023/09/25 10:26:15;;;;;;;3.90;2.53;;;18.90;99.90;;;;;;5109758;28;20050;-69
2023/09/25 10:28:41;;;;;;;4.03;2.50;;;19.00;99.90;;;;;;5092600;28;20021;-69
2023/09/25 10:31:21;;;;;;;5.95;2.70;;;19.20;99.90;;;;;;5093841;28;20031;-68
2023/09/25 10:33:57;;;;;;;5.43;2.60;;;19.20;99.90;;;;;;5106632;28;20027;-69
2023/09/25 10:36:35;;;;;;;5.68;2.83;;;19.30;99.90;;;;;;5104369;28;20114;-69
2023/09/25 10:39:01;;;;;;;2.90;2.50;;;19.40;99.90;;;;;;5098528;28;20132;-69
2023/09/25 10:41:27;;;;;;;3.10;2.25;;;19.50;99.90;;;;;;5106552;28;20432;-68
2023/09/25 10:43:53;;;;;;;3.03;2.30;;;19.50;99.90;;;;;;5109857;28;20107;-68
2023/09/25 10:46:19;;;;;;;6.97;2.83;;;19.60;99.90;;;;;;5093338;28;20248;-68
2023/09/25 10:48:46;;;;;;;4.60;2.60;;;19.80;99.90;;;;;;5068526;28;20020;-69
2023/09/25 10:51:14;;;;;;;3.88;2.45;;;20.00;99.90;;;;;;5102176;28;20034;-69
2023/09/25 10:53:40;;;;;;;7.03;2.33;;;20.00;99.90;;;;;;5110678;28;20102;-69
2023/09/25 10:56:06;;;;;;;3.25;2.00;;;20.40;99.90;;;;;;5100080;28;20111;-69
2023/09/25 10:58:34;;;;;;;6.75;3.03;;;;;;;;;;5101123;28;20020;-69
2023/09/25 11:01:02;;;;;;;6.43;2.60;;;;;;;;;;5085757;28;20028;-69
2023/09/25 11:03:28;;;;;;;3.55;2.10;;;;;;;;;;5089587;28;20318;-69
2023/09/25 11:05:54;;;;;;;3.20;2.50;;;;;;;;;;5102295;28;20050;-69
2023/09/25 11:08:21;;;;;;;4.05;2.38;;;;;;;;;;5104495;28;20027;-69
2023/09/25 11:10:47;;;;;;;4.18;2.03;;;;;;;;;;5107790;28;20023;-69
2023/09/25 11:13:13;;;;;;;5.82;2.28;;;;;;;;;;5086452;28;20020;-70
2023/09/25 11:15:40;;;;;;;7.55;2.45;;;;;;;;;;5101070;28;20039;-69
2023/09/25 11:18:07;;;;;;;3.50;2.10;;;;;;;;;;5107956;28;20022;-69
2023/09/25 11:20:34;;;;;;;3.50;2.03;;;;;;;;;;5104713;28;20135;-69
2023/09/25 11:23:08;;;;;;;3.38;2.15;;;;;;;;;;5097407;28;20035;-69
2023/09/25 11:25:44;;;;;;;2.60;1.98;;;;;;;;;;5103569;28;20036;-69
2023/09/25 11:28:13;;;;;;;3.42;1.92;;;;;;;;;;5105387;28;20024;-69
2023/09/25 11:30:40;;;;;;;3.83;1.83;;;21.80;99.20;;;;;;5082662;28;20120;-69
2023/09/25 11:33:09;;;;;;;5.10;2.33;;;21.80;95.10;;;;;;5099347;28;20077;-68
2023/09/25 11:35:39;;;;;;;3.33;2.03;;;22.10;94.70;;;;;;5092467;28;20025;-69
2023/09/25 11:38:23;;;;;;;2.22;1.73;;;22.40;94.00;;;;;;5101205;28;20077;-69
2023/09/25 11:40:52;;;;;;;3.92;1.90;;;22.50;93.70;;;;;;5087063;28;20080;-68
2023/09/25 11:43:18;;;;;;;3.05;1.80;;;22.70;93.10;;;;;;5102915;28;20059;-69
2023/09/25 11:45:44;;;;;;;2.22;1.73;;;22.80;92.80;;;;;;5079100;28;20091;-69
2023/09/25 11:48:11;;;;;;;3.40;1.90;;;22.90;92.10;;;;;;5077025;28;20024;-69
2023/09/25 11:50:39;;;;;;;2.78;1.90;;;23.10;92.30;;;;;;5079666;28;20016;-69
2023/09/25 11:53:06;;;;;;;3.58;1.92;;;23.40;91.80;;;;;;5086348;28;20032;-69
2023/09/25 11:55:32;;;;;;;2.70;2.03;;;23.80;91.00;;;;;;5076768;28;20611;-69
2023/09/25 11:57:58;;;;;;;2.35;1.40;;;24.00;90.30;;;;;;5077267;28;20075;-69
2023/09/25 12:00:27;;;;;;;2.95;2.03;;;23.90;89.00;;;;;;5072393;28;20488;-70
2023/09/25 12:02:53;;;;;;;2.50;1.70;;;24.00;88.80;;;;;;5077166;28;20024;-69
2023/09/25 12:05:20;;;;;;;6.20;1.80;;;24.20;89.10;;;;;;5073345;28;20032;-70
2023/09/25 12:07:47;;;;;;;4.50;1.80;;;24.50;87.70;;;;;;5080526;28;20182;-69
2023/09/25 12:10:16;;;;;;;3.70;1.73;;;24.60;87.00;;;;;;5067058;28;20020;-70
2023/09/25 12:12:44;;;;;;;1.83;1.73;;;24.70;87.00;;;;;;5069741;28;20021;-69
2023/09/25 12:15:12;;;;;;;5.97;1.80;;;24.90;86.30;;;;;;5080084;28;20032;-69
2023/09/25 12:17:38;;;;;;;4.15;1.90;;;25.20;85.20;;;;;;5078775;28;20032;-69
2023/09/25 12:20:15;;;;;;;4.60;1.65;;;25.20;85.10;;;;;;5082029;28;20028;-69
2023/09/25 12:22:45;;;;;;;2.58;1.80;;;25.30;83.30;;;;;;5080824;28;20086;-69
2023/09/25 12:25:13;;;;;;;2.05;1.60;;;25.50;82.40;;;;;;5091979;28;20028;-68
2023/09/25 12:27:41;;;;;;;2.60;1.80;;;25.80;82.30;;;;;;5084650;28;20433;-68
2023/09/25 12:30:13;;;;;;;3.80;2.30;;;26.20;81.50;;;;;;5087752;28;20329;-69
2023/09/25 12:32:40;;;;;;;4.03;1.88;;;26.60;79.70;;;;;;5090556;28;20096;-69
2023/09/25 12:35:07;;;;;;;3.47;1.83;;;26.90;79.00;;;;;;5085755;28;20079;-69
2023/09/25 12:37:33;;;;;;;1.80;1.58;;;26.60;78.40;;;;;;5077399;28;20063;-68
2023/09/25 12:39:59;;;;;;;3.88;2.13;;;26.60;78.70;;;;;;5082377;28;20028;-68
2023/09/25 12:42:25;;;;;;;2.25;1.83;;;26.80;77.80;;;;;;5069726;28;20082;-69
2023/09/25 12:44:50;;;;;;;2.85;1.75;;;27.20;77.20;;;;;;5067029;28;20074;-69
2023/09/25 12:47:17;;;;;;;2.15;1.63;;;27.30;77.30;;;;;;5071377;28;20117;-68
2023/09/25 12:49:44;;;;;;;2.95;1.65;;;27.10;75.60;;;;;;5088137;28;20157;-69
2023/09/25 12:52:10;;;;;;;1.92;1.67;;;27.10;76.10;;;;;;5077021;28;20028;-69
2023/09/25 12:54:36;;;;;;;2.83;1.67;;;27.00;75.60;;;;;;5078319;28;20372;-69
2023/09/25 12:57:02;;;;;;;2.00;1.80;;;26.90;75.30;;;;;;5082681;28;20107;-69
2023/09/25 12:59:27;;;;;;;2.42;1.48;;;26.70;75.00;;;;;;5087581;28;20078;-69
2023/09/25 13:01:54;;;;;;;2.47;1.50;;;26.00;75.10;;;;;;5074131;28;20028;-68
2023/09/25 13:04:19;;;;;;;1.88;1.40;;;25.60;76.60;;;;;;5082210;28;20111;-69
2023/09/25 13:06:50;;;;;;;2.05;1.75;;;25.70;76.10;;;;;;5077854;28;20406;-69
2023/09/25 13:09:16;;;;;;;2.97;1.63;;;25.80;75.70;;;;;;5081871;28;20039;-70
2023/09/25 13:11:41;;;;;;;3.65;2.00;;;26.00;76.30;;;;;;5076918;28;20108;-69
2023/09/25 13:14:07;;;;;;;1.92;1.45;;;25.90;75.90;;;;;;5075064;28;20027;-69
2023/09/25 13:16:33;;;;;;;2.78;1.52;;;25.90;75.80;;;;;;5072988;28;20028;-69
2023/09/25 13:18:59;;;;;;;2.58;1.50;;;25.70;76.30;;;;;;5070829;28;20042;-69
2023/09/25 13:21:27;;;;;;;3.30;1.60;;;25.70;76.10;;;;;;5074105;28;20060;-69